sensor_id;sensor_type;location;lat;lon;timestamp;pressure;altitude;pressure_sealevel;temperature;humidity
36454;BME280;22478;51.740;-1.314;2023-03-18T00:01:18;99122.07;;;6.47;100.00
36454;BME280;22478;51.740;-1.314;2023-03-18T00:03:46;99122.26;;;6.38;100.00
36454;BME280;22478;51.740;-1.314;2023-03-18T00:06:16;99122.86;;;6.08;100.00
36454;BME280;22478;51.740;-1.314;2023-03-18T00:08:46;99128.81;;;6.42;100.00
36454;BME280;22478;51.740;-1.314;2023-03-18T00:11:15;99128.06;;;6.03;100.00
36454;BME280;22478;51.740;-1.314;2023-03-18T00:13:43;99123.50;;;6.61;100.00
36454;BME280;22478;51.740;-1.314;2023-03-18T00:16:11;99131.96;;;4.75;100.00
36454;BME280;22478;51.740;-1.314;2023-03-18T00:18:39;99127.12;;;5.00;100.00
36454;BME280;22478;51.740;-1.314;2023-03-18T00:21:07;99123.46;;;5.74;100.00
36454;BME280;22478;51.740;-1.314;2023-03-18T00:23:34;99120.70;;;7.05;100.00
36454;BME280;22478;51.740;-1.314;2023-03-18T00:26:02;99116.23;;;6.18;100.00
36454;BME280;22478;51.740;-1.314;2023-03-18T00:28:30;99117.29;;;7.59;100.00
36454;BME280;22478;51.740;-1.314;2023-03-18T00:31:02;99119.82;;;7.74;100.00
36454;BME280;22478;51.740;-1.314;2023-03-18T00:33:30;99121.66;;;6.16;100.00
36454;BME280;22478;51.740;-1.314;2023-03-18T00:35:57;99130.57;;;5.24;100.00
36454;BME280;22478;51.740;-1.314;2023-03-18T00:38:24;99124.11;;;5.89;100.00
36454;BME280;22478;51.740;-1.314;2023-03-18T00:40:52;99128.61;;;5.37;100.00
36454;BME280;22478;51.740;-1.314;2023-03-18T00:43:21;99124.90;;;6.70;100.00
36454;BME280;22478;51.740;-1.314;2023-03-18T00:45:49;99128.87;;;6.14;100.00
36454;BME280;22478;51.740;-1.314;2023-03-18T00:48:17;99125.33;;;6.81;100.00
36454;BME280;22478;51.740;-1.314;2023-03-18T00:50:44;99123.71;;;7.77;100.00
36454;BME280;22478;51.740;-1.314;2023-03-18T00:53:12;99126.77;;;6.79;100.00
36454;BME280;22478;51.740;-1.314;2023-03-18T00:55:40;99126.56;;;6.57;100.00
36454;BME280;22478;51.740;-1.314;2023-03-18T00:58:08;99122.95;;;7.99;100.00
36454;BME280;22478;51.740;-1.314;2023-03-18T01:00:36;99122.86;;;7.06;100.00
36454;BME280;22478;51.740;-1.314;2023-03-18T01:03:04;99126.98;;;7.01;100.00
36454;BME280;22478;51.740;-1.314;2023-03-18T01:05:33;99122.20;;;6.53;100.00
36454;BME280;22478;51.740;-1.314;2023-03-18T01:08:00;99125.29;;;6.69;100.00
36454;BME280;22478;51.740;-1.314;2023-03-18T01:10:28;99124.00;;;6.93;100.00
36454;BME280;22478;51.740;-1.314;2023-03-18T01:12:55;99124.66;;;7.10;100.00
36454;BME280;22478;51.740;-1.314;2023-03-18T01:15:23;99117.39;;;6.76;100.00
36454;BME280;22478;51.740;-1.314;2023-03-18T01:17:51;99118.37;;;6.36;100.00
36454;BME280;22478;51.740;-1.314;2023-03-18T01:20:19;99122.25;;;5.82;100.00
36454;BME280;22478;51.740;-1.314;2023-03-18T01:22:46;99122.42;;;6.53;100.00
36454;BME280;22478;51.740;-1.314;2023-03-18T01:25:14;99119.30;;;6.79;100.00
36454;BME280;22478;51.740;-1.314;2023-03-18T01:27:42;99114.10;;;6.39;100.00
36454;BME280;22478;51.740;-1.314;2023-03-18T01:30:11;99105.54;;;7.21;100.00
36454;BME280;22478;51.740;-1.314;2023-03-18T01:32:38;99100.65;;;7.29;100.00
36454;BME280;22478;51.740;-1.314;2023-03-18T01:35:06;99100.53;;;7.20;100.00
36454;BME280;22478;51.740;-1.314;2023-03-18T01:37:34;99099.07;;;6.61;100.00
36454;BME280;22478;51.740;-1.314;2023-03-18T01:40:01;99097.71;;;7.23;100.00
36454;BME280;22478;51.740;-1.314;2023-03-18T01:42:27;99096.40;;;7.05;100.00
36454;BME280;22478;51.740;-1.314;2023-03-18T01:45:15;99096.92;;;6.32;100.00
36454;BME280;22478;51.740;-1.314;2023-03-18T01:47:43;99088.39;;;6.96;100.00
36454;BME280;22478;51.740;-1.314;2023-03-18T01:50:11;99087.73;;;6.51;100.00
36454;BME280;22478;51.740;-1.314;2023-03-18T01:52:39;99085.07;;;6.62;100.00
36454;BME280;22478;51.740;-1.314;2023-03-18T01:55:11;99086.05;;;6.06;100.00
36454;BME280;22478;51.740;-1.314;2023-03-18T01:57:40;99080.66;;;6.91;100.00
36454;BME280;22478;51.740;-1.314;2023-03-18T02:00:09;99082.11;;;6.89;100.00
36454;BME280;22478;51.740;-1.314;2023-03-18T02:02:37;99084.15;;;7.73;100.00
36454;BME280;22478;51.740;-1.314;2023-03-18T02:05:07;99078.86;;;6.97;100.00
36454;BME280;22478;51.740;-1.314;2023-03-18T02:07:37;99081.56;;;7.87;100.00
36454;BME280;22478;51.740;-1.314;2023-03-18T02:10:09;99077.18;;;7.48;100.00
36454;BME280;22478;51.740;-1.314;2023-03-18T02:12:40;99075.29;;;6.46;100.00
36454;BME280;22478;51.740;-1.314;2023-03-18T02:15:13;99081.96;;;5.41;100.00
36454;BME280;22478;51.740;-1.314;2023-03-18T02:17:43;99078.54;;;6.27;100.00
36454;BME280;22478;51.740;-1.314;2023-03-18T02:20:18;99080.62;;;5.67;100.00
36454;BME280;22478;51.740;-1.314;2023-03-18T02:22:52;99073.85;;;7.85;100.00
36454;BME280;22478;51.740;-1.314;2023-03-18T02:25:30;99073.70;;;7.33;100.00
36454;BME280;22478;51.740;-1.314;2023-03-18T02:28:02;99074.28;;;8.15;100.00
36454;BME280;22478;51.740;-1.314;2023-03-18T02:30:32;99074.56;;;7.56;100.00
36454;BME280;22478;51.740;-1.314;2023-03-18T02:33:02;99073.40;;;8.45;100.00
36454;BME280;22478;51.740;-1.314;2023-03-18T02:35:30;99075.52;;;9.66;100.00
36454;BME280;22478;51.740;-1.314;2023-03-18T02:37:58;99078.18;;;7.98;100.00
36454;BME280;22478;51.740;-1.314;2023-03-18T02:40:31;99077.88;;;7.22;100.00
36454;BME280;22478;51.740;-1.314;2023-03-18T02:43:16;99074.98;;;8.50;100.00
36454;BME280;22478;51.740;-1.314;2023-03-18T02:45:51;99074.12;;;9.56;100.00
36454;BME280;22478;51.740;-1.314;2023-03-18T02:48:23;99077.31;;;6.63;100.00
36454;BME280;22478;51.740;-1.314;2023-03-18T02:50:53;99075.47;;;7.55;100.00
36454;BME280;22478;51.740;-1.314;2023-03-18T02:53:21;99077.17;;;8.73;100.00
36454;BME280;22478;51.740;-1.314;2023-03-18T02:55:48;99081.55;;;8.84;100.00
36454;BME280;22478;51.740;-1.314;2023-03-18T02:58:15;99084.48;;;6.80;100.00
36454;BME280;22478;51.740;-1.314;2023-03-18T03:00:42;99080.82;;;8.96;100.00
36454;BME280;22478;51.740;-1.314;2023-03-18T03:03:10;99079.92;;;8.01;100.00
36454;BME280;22478;51.740;-1.314;2023-03-18T03:05:37;99075.56;;;8.51;100.00
36454;BME280;22478;51.740;-1.314;2023-03-18T03:08:05;99077.00;;;7.79;100.00
36454;BME280;22478;51.740;-1.314;2023-03-18T03:10:32;99073.76;;;9.16;100.00
36454;BME280;22478;51.740;-1.314;2023-03-18T03:13:01;99075.51;;;6.93;100.00
36454;BME280;22478;51.740;-1.314;2023-03-18T03:15:28;99077.62;;;8.48;100.00
36454;BME280;22478;51.740;-1.314;2023-03-18T03:17:55;99076.21;;;9.24;100.00
36454;BME280;22478;51.740;-1.314;2023-03-18T03:20:23;99075.62;;;7.99;100.00
36454;BME280;22478;51.740;-1.314;2023-03-18T03:22:50;99081.50;;;7.71;100.00
36454;BME280;22478;51.740;-1.314;2023-03-18T03:25:17;99081.93;;;7.68;100.00
36454;BME280;22478;51.740;-1.314;2023-03-18T03:27:45;99083.58;;;8.37;100.00
36454;BME280;22478;51.740;-1.314;2023-03-18T03:30:13;99086.30;;;6.93;100.00
36454;BME280;22478;51.740;-1.314;2023-03-18T03:32:40;99087.42;;;8.36;100.00
36454;BME280;22478;51.740;-1.314;2023-03-18T03:35:11;99081.90;;;8.50;100.00
36454;BME280;22478;51.740;-1.314;2023-03-18T03:37:39;99085.86;;;9.06;100.00
36454;BME280;22478;51.740;-1.314;2023-03-18T03:40:07;99085.17;;;9.55;100.00
36454;BME280;22478;51.740;-1.314;2023-03-18T03:42:35;99088.87;;;9.51;100.00
36454;BME280;22478;51.740;-1.314;2023-03-18T03:45:04;99093.73;;;7.24;100.00
36454;BME280;22478;51.740;-1.314;2023-03-18T03:47:32;99090.56;;;8.52;100.00
36454;BME280;22478;51.740;-1.314;2023-03-18T03:49:59;99095.81;;;7.34;100.00
36454;BME280;22478;51.740;-1.314;2023-03-18T03:52:26;99096.39;;;7.91;100.00
36454;BME280;22478;51.740;-1.314;2023-03-18T03:54:53;99097.44;;;7.53;100.00
36454;BME280;22478;51.740;-1.314;2023-03-18T03:57:21;99094.22;;;8.69;100.00
36454;BME280;22478;51.740;-1.314;2023-03-18T03:59:48;99095.47;;;8.61;100.00
36454;BME280;22478;51.740;-1.314;2023-03-18T04:02:16;99097.98;;;9.27;100.00
36454;BME280;22478;51.740;-1.314;2023-03-18T04:04:44;99097.24;;;8.52;100.00
36454;BME280;22478;51.740;-1.314;2023-03-18T04:07:12;99101.13;;;7.74;100.00
36454;BME280;22478;51.740;-1.314;2023-03-18T04:09:39;99099.24;;;8.41;100.00
36454;BME280;22478;51.740;-1.314;2023-03-18T04:12:07;99103.55;;;9.06;100.00
36454;BME280;22478;51.740;-1.314;2023-03-18T04:14:34;99103.06;;;8.59;100.00
36454;BME280;22478;51.740;-1.314;2023-03-18T04:17:01;99103.67;;;7.50;100.00
36454;BME280;22478;51.740;-1.314;2023-03-18T04:19:28;99097.95;;;8.15;100.00
36454;BME280;22478;51.740;-1.314;2023-03-18T04:21:56;99092.68;;;8.29;100.00
36454;BME280;22478;51.740;-1.314;2023-03-18T04:24:23;99094.43;;;9.11;100.00
36454;BME280;22478;51.740;-1.314;2023-03-18T04:26:50;99094.82;;;8.07;100.00
36454;BME280;22478;51.740;-1.314;2023-03-18T04:29:17;99097.87;;;8.39;100.00
36454;BME280;22478;51.740;-1.314;2023-03-18T04:31:44;99094.87;;;9.35;100.00
36454;BME280;22478;51.740;-1.314;2023-03-18T04:34:11;99094.29;;;8.87;100.00
36454;BME280;22478;51.740;-1.314;2023-03-18T04:36:38;99091.57;;;8.01;100.00
36454;BME280;22478;51.740;-1.314;2023-03-18T04:39:07;99092.78;;;8.06;100.00
36454;BME280;22478;51.740;-1.314;2023-03-18T04:41:35;99089.75;;;8.34;100.00
36454;BME280;22478;51.740;-1.314;2023-03-18T04:44:03;99099.61;;;7.99;100.00
36454;BME280;22478;51.740;-1.314;2023-03-18T04:46:30;99100.38;;;7.88;100.00
36454;BME280;22478;51.740;-1.314;2023-03-18T04:48:58;99104.88;;;7.68;100.00
36454;BME280;22478;51.740;-1.314;2023-03-18T04:51:25;99100.80;;;8.23;100.00
36454;BME280;22478;51.740;-1.314;2023-03-18T04:53:53;99101.78;;;8.81;100.00
36454;BME280;22478;51.740;-1.314;2023-03-18T04:56:21;99107.35;;;8.40;100.00
36454;BME280;22478;51.740;-1.314;2023-03-18T04:58:48;99106.49;;;8.37;100.00
36454;BME280;22478;51.740;-1.314;2023-03-18T05:01:15;99109.59;;;8.52;100.00
36454;BME280;22478;51.740;-1.314;2023-03-18T05:03:43;99106.67;;;8.97;100.00
36454;BME280;22478;51.740;-1.314;2023-03-18T05:06:19;99107.09;;;8.54;100.00
36454;BME280;22478;51.740;-1.314;2023-03-18T05:08:46;99105.58;;;8.51;100.00
36454;BME280;22478;51.740;-1.314;2023-03-18T05:11:13;99101.74;;;9.00;100.00
36454;BME280;22478;51.740;-1.314;2023-03-18T05:13:41;99098.55;;;9.18;100.00
36454;BME280;22478;51.740;-1.314;2023-03-18T05:16:08;99099.13;;;8.92;100.00
36454;BME280;22478;51.740;-1.314;2023-03-18T05:18:35;99100.52;;;9.53;100.00
36454;BME280;22478;51.740;-1.314;2023-03-18T05:21:04;99095.67;;;9.61;100.00
36454;BME280;22478;51.740;-1.314;2023-03-18T05:23:32;99095.05;;;8.32;100.00
36454;BME280;22478;51.740;-1.314;2023-03-18T05:25:59;99096.11;;;9.20;100.00
36454;BME280;22478;51.740;-1.314;2023-03-18T05:28:26;99095.39;;;8.12;100.00
36454;BME280;22478;51.740;-1.314;2023-03-18T05:30:54;99101.43;;;7.84;100.00
36454;BME280;22478;51.740;-1.314;2023-03-18T05:33:21;99096.66;;;8.27;100.00
36454;BME280;22478;51.740;-1.314;2023-03-18T05:35:49;99100.22;;;8.83;100.00
36454;BME280;22478;51.740;-1.314;2023-03-18T05:38:16;99101.41;;;7.97;100.00
36454;BME280;22478;51.740;-1.314;2023-03-18T05:40:43;99100.81;;;8.06;100.00
36454;BME280;22478;51.740;-1.314;2023-03-18T05:43:11;99096.47;;;8.73;100.00
36454;BME280;22478;51.740;-1.314;2023-03-18T05:45:38;99097.50;;;8.17;100.00
36454;BME280;22478;51.740;-1.314;2023-03-18T05:48:05;99097.35;;;8.28;100.00
36454;BME280;22478;51.740;-1.314;2023-03-18T05:50:35;99103.19;;;7.24;100.00
36454;BME280;22478;51.740;-1.314;2023-03-18T05:53:04;99103.92;;;8.87;100.00
36454;BME280;22478;51.740;-1.314;2023-03-18T05:55:32;99109.47;;;6.43;100.00
36454;BME280;22478;51.740;-1.314;2023-03-18T05:58:00;99100.41;;;8.90;100.00
36454;BME280;22478;51.740;-1.314;2023-03-18T06:00:29;99103.01;;;8.34;100.00
36454;BME280;22478;51.740;-1.314;2023-03-18T06:02:57;99109.07;;;9.17;100.00
36454;BME280;22478;51.740;-1.314;2023-03-18T06:05:25;99105.32;;;9.05;100.00
36454;BME280;22478;51.740;-1.314;2023-03-18T06:07:52;99108.01;;;8.89;100.00
36454;BME280;22478;51.740;-1.314;2023-03-18T06:10:21;99109.75;;;8.49;100.00
36454;BME280;22478;51.740;-1.314;2023-03-18T06:12:48;99113.80;;;8.91;100.00
36454;BME280;22478;51.740;-1.314;2023-03-18T06:15:17;99114.79;;;7.80;100.00
36454;BME280;22478;51.740;-1.314;2023-03-18T06:17:45;99120.97;;;8.87;100.00
36454;BME280;22478;51.740;-1.314;2023-03-18T06:20:14;99126.03;;;9.17;100.00
36454;BME280;22478;51.740;-1.314;2023-03-18T06:22:42;99128.15;;;8.96;100.00
36454;BME280;22478;51.740;-1.314;2023-03-18T06:25:10;99130.43;;;9.67;100.00
36454;BME280;22478;51.740;-1.314;2023-03-18T06:27:37;99129.05;;;9.93;100.00
36454;BME280;22478;51.740;-1.314;2023-03-18T06:30:05;99129.96;;;9.18;100.00
36454;BME280;22478;51.740;-1.314;2023-03-18T06:32:33;99137.23;;;8.46;100.00
36454;BME280;22478;51.740;-1.314;2023-03-18T06:35:00;99137.29;;;8.42;100.00
36454;BME280;22478;51.740;-1.314;2023-03-18T06:37:27;99145.64;;;9.56;100.00
36454;BME280;22478;51.740;-1.314;2023-03-18T06:39:55;99147.41;;;8.65;100.00
36454;BME280;22478;51.740;-1.314;2023-03-18T06:42:22;99152.99;;;9.45;100.00
36454;BME280;22478;51.740;-1.314;2023-03-18T06:44:50;99159.19;;;9.79;100.00
36454;BME280;22478;51.740;-1.314;2023-03-18T06:47:17;99159.68;;;9.47;100.00
36454;BME280;22478;51.740;-1.314;2023-03-18T06:49:45;99162.58;;;8.24;100.00
36454;BME280;22478;51.740;-1.314;2023-03-18T06:52:13;99165.75;;;7.38;100.00
36454;BME280;22478;51.740;-1.314;2023-03-18T06:54:40;99162.35;;;9.20;100.00
36454;BME280;22478;51.740;-1.314;2023-03-18T06:57:08;99168.63;;;7.89;100.00
36454;BME280;22478;51.740;-1.314;2023-03-18T06:59:35;99169.65;;;8.52;100.00
36454;BME280;22478;51.740;-1.314;2023-03-18T07:02:03;99170.76;;;8.94;100.00
36454;BME280;22478;51.740;-1.314;2023-03-18T07:04:30;99174.93;;;9.07;100.00
36454;BME280;22478;51.740;-1.314;2023-03-18T07:06:58;99174.33;;;8.47;100.00
36454;BME280;22478;51.740;-1.314;2023-03-18T07:09:25;99179.29;;;8.60;100.00
36454;BME280;22478;51.740;-1.314;2023-03-18T07:11:53;99186.39;;;9.80;100.00
36454;BME280;22478;51.740;-1.314;2023-03-18T07:14:21;99183.23;;;8.90;100.00
36454;BME280;22478;51.740;-1.314;2023-03-18T07:16:48;99185.88;;;9.62;100.00
36454;BME280;22478;51.740;-1.314;2023-03-18T07:19:18;99183.34;;;9.06;100.00
36454;BME280;22478;51.740;-1.314;2023-03-18T07:21:45;99184.05;;;9.16;100.00
36454;BME280;22478;51.740;-1.314;2023-03-18T07:24:12;99181.34;;;10.05;100.00
36454;BME280;22478;51.740;-1.314;2023-03-18T07:26:40;99181.21;;;9.58;100.00
36454;BME280;22478;51.740;-1.314;2023-03-18T07:29:07;99181.03;;;9.88;100.00
36454;BME280;22478;51.740;-1.314;2023-03-18T07:31:34;99180.54;;;10.32;100.00
36454;BME280;22478;51.740;-1.314;2023-03-18T07:34:01;99179.41;;;10.67;100.00
36454;BME280;22478;51.740;-1.314;2023-03-18T07:36:29;99184.54;;;10.10;100.00
36454;BME280;22478;51.740;-1.314;2023-03-18T07:38:56;99184.28;;;9.70;100.00
36454;BME280;22478;51.740;-1.314;2023-03-18T07:41:23;99184.16;;;9.66;100.00
36454;BME280;22478;51.740;-1.314;2023-03-18T07:43:50;99183.64;;;9.70;100.00
36454;BME280;22478;51.740;-1.314;2023-03-18T07:46:18;99182.73;;;10.04;100.00
36454;BME280;22478;51.740;-1.314;2023-03-18T07:48:45;99179.78;;;10.11;100.00
36454;BME280;22478;51.740;-1.314;2023-03-18T07:51:13;99180.27;;;10.26;100.00
36454;BME280;22478;51.740;-1.314;2023-03-18T07:53:40;99182.08;;;11.06;100.00
36454;BME280;22478;51.740;-1.314;2023-03-18T07:56:08;99184.87;;;11.31;100.00
36454;BME280;22478;51.740;-1.314;2023-03-18T07:58:35;99184.45;;;10.96;100.00
36454;BME280;22478;51.740;-1.314;2023-03-18T08:01:03;99180.29;;;10.74;100.00
36454;BME280;22478;51.740;-1.314;2023-03-18T08:03:30;99180.71;;;7.84;100.00
36454;BME280;22478;51.740;-1.314;2023-03-18T08:05:58;99183.74;;;11.00;100.00
36454;BME280;22478;51.740;-1.314;2023-03-18T08:08:25;99184.56;;;9.76;100.00
36454;BME280;22478;51.740;-1.314;2023-03-18T08:10:55;99190.14;;;10.53;100.00
36454;BME280;22478;51.740;-1.314;2023-03-18T08:13:23;99190.59;;;11.08;100.00
36454;BME280;22478;51.740;-1.314;2023-03-18T08:15:50;99190.50;;;10.27;100.00
36454;BME280;22478;51.740;-1.314;2023-03-18T08:18:18;99190.36;;;9.63;100.00
36454;BME280;22478;51.740;-1.314;2023-03-18T08:20:45;99190.41;;;9.74;100.00
36454;BME280;22478;51.740;-1.314;2023-03-18T08:23:13;99190.14;;;10.06;100.00
36454;BME280;22478;51.740;-1.314;2023-03-18T08:25:41;99189.92;;;10.24;100.00
36454;BME280;22478;51.740;-1.314;2023-03-18T08:28:09;99194.59;;;9.62;100.00
36454;BME280;22478;51.740;-1.314;2023-03-18T08:30:38;99194.26;;;11.07;100.00
36454;BME280;22478;51.740;-1.314;2023-03-18T08:33:05;99192.69;;;8.89;100.00
36454;BME280;22478;51.740;-1.314;2023-03-18T08:35:33;99193.83;;;8.98;100.00
36454;BME280;22478;51.740;-1.314;2023-03-18T08:38:01;99194.03;;;9.74;100.00
36454;BME280;22478;51.740;-1.314;2023-03-18T08:40:28;99197.64;;;9.69;100.00
36454;BME280;22478;51.740;-1.314;2023-03-18T08:42:55;99201.57;;;10.06;100.00
36454;BME280;22478;51.740;-1.314;2023-03-18T08:45:23;99200.55;;;9.07;100.00
36454;BME280;22478;51.740;-1.314;2023-03-18T08:47:50;99200.45;;;9.20;100.00
36454;BME280;22478;51.740;-1.314;2023-03-18T08:50:18;99199.39;;;9.01;100.00
36454;BME280;22478;51.740;-1.314;2023-03-18T08:52:45;99195.79;;;10.63;100.00
36454;BME280;22478;51.740;-1.314;2023-03-18T08:55:13;99199.13;;;9.94;100.00
36454;BME280;22478;51.740;-1.314;2023-03-18T08:57:40;99202.06;;;11.27;100.00
36454;BME280;22478;51.740;-1.314;2023-03-18T09:00:08;99207.55;;;9.61;100.00
36454;BME280;22478;51.740;-1.314;2023-03-18T09:02:35;99206.87;;;10.65;100.00
36454;BME280;22478;51.740;-1.314;2023-03-18T09:05:03;99208.49;;;10.17;100.00
36454;BME280;22478;51.740;-1.314;2023-03-18T09:07:31;99212.47;;;8.74;100.00
36454;BME280;22478;51.740;-1.314;2023-03-18T09:09:59;99219.77;;;9.56;100.00
36454;BME280;22478;51.740;-1.314;2023-03-18T09:12:26;99225.86;;;10.14;100.00
36454;BME280;22478;51.740;-1.314;2023-03-18T09:14:53;99226.08;;;11.83;100.00
36454;BME280;22478;51.740;-1.314;2023-03-18T09:17:20;99231.28;;;10.92;100.00
36454;BME280;22478;51.740;-1.314;2023-03-18T09:19:48;99227.67;;;11.65;100.00
36454;BME280;22478;51.740;-1.314;2023-03-18T09:22:15;99233.16;;;10.12;100.00
36454;BME280;22478;51.740;-1.314;2023-03-18T09:24:42;99233.67;;;9.81;100.00
36454;BME280;22478;51.740;-1.314;2023-03-18T09:27:10;99232.77;;;10.85;100.00
36454;BME280;22478;51.740;-1.314;2023-03-18T09:29:37;99230.56;;;11.11;100.00
36454;BME280;22478;51.740;-1.314;2023-03-18T09:32:04;99232.43;;;10.83;99.14
36454;BME280;22478;51.740;-1.314;2023-03-18T09:34:31;99234.16;;;10.14;100.00
36454;BME280;22478;51.740;-1.314;2023-03-18T09:36:59;99238.50;;;9.46;100.00
36454;BME280;22478;51.740;-1.314;2023-03-18T09:39:26;99233.91;;;11.19;100.00
36454;BME280;22478;51.740;-1.314;2023-03-18T09:42:07;99232.77;;;11.35;100.00
36454;BME280;22478;51.740;-1.314;2023-03-18T09:44:37;99228.05;;;11.69;100.00
36454;BME280;22478;51.740;-1.314;2023-03-18T09:47:39;99230.81;;;11.31;100.00
36454;BME280;22478;51.740;-1.314;2023-03-18T09:50:20;99239.56;;;8.82;100.00
36454;BME280;22478;51.740;-1.314;2023-03-18T09:53:02;99236.88;;;9.54;100.00
36454;BME280;22478;51.740;-1.314;2023-03-18T09:55:36;99243.24;;;9.68;100.00
36454;BME280;22478;51.740;-1.314;2023-03-18T09:58:13;99244.83;;;9.20;100.00
36454;BME280;22478;51.740;-1.314;2023-03-18T10:00:41;99246.96;;;9.85;100.00
36454;BME280;22478;51.740;-1.314;2023-03-18T10:03:13;99249.53;;;9.37;100.00
36454;BME280;22478;51.740;-1.314;2023-03-18T10:05:46;99249.89;;;8.25;100.00
36454;BME280;22478;51.740;-1.314;2023-03-18T10:08:19;99255.83;;;6.55;100.00
36454;BME280;22478;51.740;-1.314;2023-03-18T10:10:50;99257.35;;;8.04;100.00
36454;BME280;22478;51.740;-1.314;2023-03-18T10:13:20;99263.03;;;6.87;100.00
36454;BME280;22478;51.740;-1.314;2023-03-18T10:15:52;99259.36;;;9.34;100.00
36454;BME280;22478;51.740;-1.314;2023-03-18T10:18:24;99257.73;;;9.75;100.00
36454;BME280;22478;51.740;-1.314;2023-03-18T10:21:02;99266.38;;;6.39;100.00
36454;BME280;22478;51.740;-1.314;2023-03-18T10:23:42;99258.45;;;8.21;100.00
36454;BME280;22478;51.740;-1.314;2023-03-18T10:26:15;99258.33;;;8.53;100.00
36454;BME280;22478;51.740;-1.314;2023-03-18T10:29:02;99261.70;;;8.44;100.00
36454;BME280;22478;51.740;-1.314;2023-03-18T10:31:44;99268.27;;;6.21;100.00
36454;BME280;22478;51.740;-1.314;2023-03-18T10:34:15;99266.62;;;7.92;100.00
36454;BME280;22478;51.740;-1.314;2023-03-18T10:36:49;99266.91;;;7.59;100.00
36454;BME280;22478;51.740;-1.314;2023-03-18T10:39:18;99264.05;;;8.90;100.00
36454;BME280;22478;51.740;-1.314;2023-03-18T10:41:48;99269.94;;;8.33;100.00
36454;BME280;22478;51.740;-1.314;2023-03-18T10:44:17;99268.27;;;9.74;100.00
36454;BME280;22478;51.740;-1.314;2023-03-18T10:46:46;99266.35;;;8.79;100.00
36454;BME280;22478;51.740;-1.314;2023-03-18T10:49:16;99269.70;;;9.15;100.00
36454;BME280;22478;51.740;-1.314;2023-03-18T10:51:48;99272.86;;;10.00;100.00
36454;BME280;22478;51.740;-1.314;2023-03-18T10:54:22;99270.10;;;10.49;100.00
36454;BME280;22478;51.740;-1.314;2023-03-18T10:56:50;99274.32;;;9.49;100.00
36454;BME280;22478;51.740;-1.314;2023-03-18T10:59:21;99275.25;;;7.89;100.00
36454;BME280;22478;51.740;-1.314;2023-03-18T11:01:52;99283.32;;;6.31;100.00
36454;BME280;22478;51.740;-1.314;2023-03-18T11:04:21;99279.62;;;5.68;100.00
36454;BME280;22478;51.740;-1.314;2023-03-18T11:06:53;99285.27;;;5.57;100.00
36454;BME280;22478;51.740;-1.314;2023-03-18T11:09:30;99286.75;;;6.10;100.00
36454;BME280;22478;51.740;-1.314;2023-03-18T11:12:03;99282.03;;;7.22;100.00
36454;BME280;22478;51.740;-1.314;2023-03-18T11:14:32;99282.21;;;7.69;100.00
36454;BME280;22478;51.740;-1.314;2023-03-18T11:17:00;99274.87;;;8.68;100.00
36454;BME280;22478;51.740;-1.314;2023-03-18T11:19:31;99275.21;;;9.30;100.00
36454;BME280;22478;51.740;-1.314;2023-03-18T11:22:01;99278.44;;;7.99;100.00
36454;BME280;22478;51.740;-1.314;2023-03-18T11:24:30;99273.26;;;8.87;100.00
36454;BME280;22478;51.740;-1.314;2023-03-18T11:26:57;99275.47;;;9.46;100.00
36454;BME280;22478;51.740;-1.314;2023-03-18T11:29:28;99276.12;;;10.23;100.00
36454;BME280;22478;51.740;-1.314;2023-03-18T11:31:57;99276.66;;;10.56;100.00
36454;BME280;22478;51.740;-1.314;2023-03-18T11:34:26;99274.15;;;10.85;100.00
36454;BME280;22478;51.740;-1.314;2023-03-18T11:36:57;99276.48;;;9.06;100.00
36454;BME280;22478;51.740;-1.314;2023-03-18T11:39:26;99283.90;;;7.22;100.00
36454;BME280;22478;51.740;-1.314;2023-03-18T11:41:54;99283.21;;;8.41;100.00
36454;BME280;22478;51.740;-1.314;2023-03-18T11:44:28;99287.68;;;6.41;100.00
36454;BME280;22478;51.740;-1.314;2023-03-18T11:47:02;99283.95;;;7.51;100.00
36454;BME280;22478;51.740;-1.314;2023-03-18T11:49:31;99285.42;;;7.20;100.00
36454;BME280;22478;51.740;-1.314;2023-03-18T11:52:09;99286.86;;;7.18;100.00
36454;BME280;22478;51.740;-1.314;2023-03-18T11:55:24;99284.45;;;9.53;100.00
36454;BME280;22478;51.740;-1.314;2023-03-18T11:58:46;99290.11;;;8.14;100.00
36454;BME280;22478;51.740;-1.314;2023-03-18T12:01:22;99287.17;;;9.40;100.00
36454;BME280;22478;51.740;-1.314;2023-03-18T12:04:21;99286.69;;;9.23;100.00
36454;BME280;22478;51.740;-1.314;2023-03-18T12:07:04;99286.00;;;9.62;100.00
36454;BME280;22478;51.740;-1.314;2023-03-18T12:09:37;99285.37;;;10.16;100.00
36454;BME280;22478;51.740;-1.314;2023-03-18T12:12:20;99288.08;;;10.07;100.00
36454;BME280;22478;51.740;-1.314;2023-03-18T12:14:53;99287.75;;;10.54;100.00
36454;BME280;22478;51.740;-1.314;2023-03-18T12:17:30;99286.68;;;10.17;100.00
36454;BME280;22478;51.740;-1.314;2023-03-18T12:21:17;99274.94;;;11.75;100.00
36454;BME280;22478;51.740;-1.314;2023-03-18T12:23:54;99282.45;;;10.77;100.00
36454;BME280;22478;51.740;-1.314;2023-03-18T12:26:33;99284.96;;;9.93;100.00
36454;BME280;22478;51.740;-1.314;2023-03-18T12:29:24;99287.09;;;9.10;100.00
36454;BME280;22478;51.740;-1.314;2023-03-18T12:32:05;99287.66;;;9.72;100.00
36454;BME280;22478;51.740;-1.314;2023-03-18T12:34:48;99276.35;;;12.34;100.00
36454;BME280;22478;51.740;-1.314;2023-03-18T12:37:27;99279.09;;;11.79;100.00
36454;BME280;22478;51.740;-1.314;2023-03-18T12:40:08;99279.49;;;11.60;100.00
36454;BME280;22478;51.740;-1.314;2023-03-18T12:42:48;99278.13;;;13.17;100.00
36454;BME280;22478;51.740;-1.314;2023-03-18T12:45:23;99278.56;;;13.23;100.00
36454;BME280;22478;51.740;-1.314;2023-03-18T12:47:55;99272.07;;;14.06;90.32
36454;BME280;22478;51.740;-1.314;2023-03-18T12:50:29;99279.86;;;11.72;100.00
36454;BME280;22478;51.740;-1.314;2023-03-18T12:53:00;99276.13;;;14.37;85.61
36454;BME280;22478;51.740;-1.314;2023-03-18T12:55:31;99284.11;;;11.88;93.21
36454;BME280;22478;51.740;-1.314;2023-03-18T12:58:03;99288.23;;;11.02;100.00
36454;BME280;22478;51.740;-1.314;2023-03-18T13:00:34;99291.12;;;11.80;100.00
36454;BME280;22478;51.740;-1.314;2023-03-18T13:03:15;99287.62;;;13.19;85.04